Terminal Aerodrome Forecast
Issued by NWS

Home | Current Version | Previous Version | Text Only | Print | Product List | Glossary On
Versions: 1 2 3 4 5 6 7 8 9 10 11 12 13 14 15 16 17 18 19 20
000
FTUS44 KMAF 171926 AAB
TAFFST
TAF AMD
KFST 171926Z 1719/1818 12011KT P6SM SCT050 BKN250
      TEMPO 1719/1723 VRB15G25KT 6SM TSRA BKN045CB
     FM180200 15008KT P6SM BKN200
     FM181200 16009KT P6SM BKN250
     FM181600 13009G19KT P6SM SCT045 BKN250=

USA.gov is the U.S. government's official web portal to all federal, state and local government web resources and services.